sensor_id;sensor_type;location;lat;lon;timestamp;P1;durP1;ratioP1;P2;durP2;ratioP2
49450;SDS011;35336;48.400;10.886;2023-08-31T00:00:08;3.03;;;2.60;;
49450;SDS011;35336;48.400;10.886;2023-08-31T00:00:24;3.47;;;3.13;;
49450;SDS011;35336;48.400;10.886;2023-08-31T00:00:42;4.20;;;3.60;;
49450;SDS011;35336;48.400;10.886;2023-08-31T00:01:01;4.38;;;3.20;;
49450;SDS011;35336;48.400;10.886;2023-08-31T00:01:17;4.22;;;3.20;;
49450;SDS011;35336;48.400;10.886;2023-08-31T00:01:35;3.83;;;3.40;;
49450;SDS011;35336;48.400;10.886;2023-08-31T00:01:52;4.07;;;3.30;;
49450;SDS011;35336;48.400;10.886;2023-08-31T00:02:07;4.87;;;3.50;;
49450;SDS011;35336;48.400;10.886;2023-08-31T00:02:25;5.00;;;3.35;;
49450;SDS011;35336;48.400;10.886;2023-08-31T00:02:40;2.95;;;2.72;;
49450;SDS011;35336;48.400;10.886;2023-08-31T00:02:58;2.83;;;2.63;;
49450;SDS011;35336;48.400;10.886;2023-08-31T00:03:14;2.90;;;2.70;;
49450;SDS011;35336;48.400;10.886;2023-08-31T00:03:30;3.73;;;2.97;;
49450;SDS011;35336;48.400;10.886;2023-08-31T00:03:46;3.38;;;2.80;;
49450;SDS011;35336;48.400;10.886;2023-08-31T00:04:01;3.07;;;2.77;;
49450;SDS011;35336;48.400;10.886;2023-08-31T00:04:16;3.58;;;3.17;;
49450;SDS011;35336;48.400;10.886;2023-08-31T00:04:32;4.43;;;3.40;;
49450;SDS011;35336;48.400;10.886;2023-08-31T00:04:47;4.20;;;3.50;;
49450;SDS011;35336;48.400;10.886;2023-08-31T00:05:02;3.60;;;3.30;;
49450;SDS011;35336;48.400;10.886;2023-08-31T00:05:18;3.95;;;3.05;;
49450;SDS011;35336;48.400;10.886;2023-08-31T00:05:33;3.60;;;2.97;;
49450;SDS011;35336;48.400;10.886;2023-08-31T00:05:52;3.35;;;3.05;;
49450;SDS011;35336;48.400;10.886;2023-08-31T00:06:07;3.13;;;2.83;;
49450;SDS011;35336;48.400;10.886;2023-08-31T00:06:22;3.07;;;2.77;;
49450;SDS011;35336;48.400;10.886;2023-08-31T00:06:38;3.22;;;2.92;;
49450;SDS011;35336;48.400;10.886;2023-08-31T00:06:56;3.25;;;2.80;;
49450;SDS011;35336;48.400;10.886;2023-08-31T00:07:11;3.17;;;2.80;;
49450;SDS011;35336;48.400;10.886;2023-08-31T00:07:29;3.17;;;2.88;;
49450;SDS011;35336;48.400;10.886;2023-08-31T00:07:44;3.00;;;2.70;;
49450;SDS011;35336;48.400;10.886;2023-08-31T00:07:59;3.97;;;2.80;;
49450;SDS011;35336;48.400;10.886;2023-08-31T00:08:17;4.53;;;2.70;;
49450;SDS011;35336;48.400;10.886;2023-08-31T00:08:32;3.28;;;2.63;;
49450;SDS011;35336;48.400;10.886;2023-08-31T00:08:53;3.08;;;2.78;;
49450;SDS011;35336;48.400;10.886;2023-08-31T00:09:11;3.00;;;2.80;;
49450;SDS011;35336;48.400;10.886;2023-08-31T00:09:29;3.60;;;2.60;;
49450;SDS011;35336;48.400;10.886;2023-08-31T00:09:44;3.10;;;2.63;;
49450;SDS011;35336;48.400;10.886;2023-08-31T00:10:04;4.72;;;2.90;;
49450;SDS011;35336;48.400;10.886;2023-08-31T00:10:20;3.05;;;2.70;;
49450;SDS011;35336;48.400;10.886;2023-08-31T00:10:35;2.80;;;2.60;;
49450;SDS011;35336;48.400;10.886;2023-08-31T00:11:00;3.00;;;2.60;;
49450;SDS011;35336;48.400;10.886;2023-08-31T00:11:15;4.55;;;2.67;;
49450;SDS011;35336;48.400;10.886;2023-08-31T00:11:33;3.45;;;2.90;;
49450;SDS011;35336;48.400;10.886;2023-08-31T00:11:51;3.00;;;2.75;;
49450;SDS011;35336;48.400;10.886;2023-08-31T00:12:09;3.00;;;2.67;;
49450;SDS011;35336;48.400;10.886;2023-08-31T00:12:27;2.80;;;2.60;;
49450;SDS011;35336;48.400;10.886;2023-08-31T00:12:42;3.50;;;2.73;;
49450;SDS011;35336;48.400;10.886;2023-08-31T00:12:58;4.13;;;2.73;;
49450;SDS011;35336;48.400;10.886;2023-08-31T00:13:13;3.97;;;2.90;;
49450;SDS011;35336;48.400;10.886;2023-08-31T00:13:28;3.50;;;2.87;;
49450;SDS011;35336;48.400;10.886;2023-08-31T00:13:44;2.97;;;2.65;;
49450;SDS011;35336;48.400;10.886;2023-08-31T00:13:59;2.70;;;2.50;;
49450;SDS011;35336;48.400;10.886;2023-08-31T00:14:17;2.58;;;2.38;;
49450;SDS011;35336;48.400;10.886;2023-08-31T00:14:32;2.80;;;2.30;;
49450;SDS011;35336;48.400;10.886;2023-08-31T00:14:49;3.57;;;2.57;;
49450;SDS011;35336;48.400;10.886;2023-08-31T00:15:14;4.50;;;2.87;;
49450;SDS011;35336;48.400;10.886;2023-08-31T00:15:32;4.30;;;3.05;;
49450;SDS011;35336;48.400;10.886;2023-08-31T00:15:48;4.45;;;3.08;;
49450;SDS011;35336;48.400;10.886;2023-08-31T00:16:03;3.63;;;3.00;;
49450;SDS011;35336;48.400;10.886;2023-08-31T00:16:19;3.33;;;2.97;;
49450;SDS011;35336;48.400;10.886;2023-08-31T00:16:39;3.78;;;3.10;;
49450;SDS011;35336;48.400;10.886;2023-08-31T00:16:54;3.23;;;2.77;;
49450;SDS011;35336;48.400;10.886;2023-08-31T00:17:09;3.90;;;2.77;;
49450;SDS011;35336;48.400;10.886;2023-08-31T00:17:25;3.60;;;2.90;;
49450;SDS011;35336;48.400;10.886;2023-08-31T00:17:40;3.10;;;2.70;;
49450;SDS011;35336;48.400;10.886;2023-08-31T00:17:58;3.27;;;2.83;;
49450;SDS011;35336;48.400;10.886;2023-08-31T00:18:13;3.08;;;2.78;;
49450;SDS011;35336;48.400;10.886;2023-08-31T00:18:29;2.60;;;2.40;;
49450;SDS011;35336;48.400;10.886;2023-08-31T00:18:49;3.00;;;2.70;;
49450;SDS011;35336;48.400;10.886;2023-08-31T00:19:04;2.93;;;2.67;;
49450;SDS011;35336;48.400;10.886;2023-08-31T00:19:21;2.65;;;2.45;;
49450;SDS011;35336;48.400;10.886;2023-08-31T00:19:39;2.80;;;2.60;;
49450;SDS011;35336;48.400;10.886;2023-08-31T00:19:57;2.83;;;2.63;;
49450;SDS011;35336;48.400;10.886;2023-08-31T00:20:12;2.80;;;2.60;;
49450;SDS011;35336;48.400;10.886;2023-08-31T00:20:27;3.00;;;2.70;;
49450;SDS011;35336;48.400;10.886;2023-08-31T00:20:44;3.08;;;2.78;;
49450;SDS011;35336;48.400;10.886;2023-08-31T00:21:00;3.17;;;2.88;;
49450;SDS011;35336;48.400;10.886;2023-08-31T00:21:15;3.20;;;2.90;;
49450;SDS011;35336;48.400;10.886;2023-08-31T00:21:30;3.47;;;2.93;;
49450;SDS011;35336;48.400;10.886;2023-08-31T00:21:45;4.15;;;3.05;;
49450;SDS011;35336;48.400;10.886;2023-08-31T00:22:01;3.87;;;3.10;;
49450;SDS011;35336;48.400;10.886;2023-08-31T00:22:19;3.75;;;2.92;;
49450;SDS011;35336;48.400;10.886;2023-08-31T00:22:34;4.60;;;2.80;;
49450;SDS011;35336;48.400;10.886;2023-08-31T00:22:50;4.82;;;2.83;;
49450;SDS011;35336;48.400;10.886;2023-08-31T00:23:08;4.40;;;2.80;;
49450;SDS011;35336;48.400;10.886;2023-08-31T00:23:23;3.38;;;2.70;;
49450;SDS011;35336;48.400;10.886;2023-08-31T00:23:38;2.70;;;2.50;;
49450;SDS011;35336;48.400;10.886;2023-08-31T00:23:54;2.83;;;2.50;;
49450;SDS011;35336;48.400;10.886;2023-08-31T00:24:09;3.73;;;2.70;;
49450;SDS011;35336;48.400;10.886;2023-08-31T00:24:26;3.13;;;2.80;;
49450;SDS011;35336;48.400;10.886;2023-08-31T00:24:42;3.07;;;2.87;;
49450;SDS011;35336;48.400;10.886;2023-08-31T00:24:59;3.30;;;3.00;;
49450;SDS011;35336;48.400;10.886;2023-08-31T00:25:14;5.20;;;3.00;;
49450;SDS011;35336;48.400;10.886;2023-08-31T00:25:30;4.80;;;2.90;;
49450;SDS011;35336;48.400;10.886;2023-08-31T00:25:47;3.10;;;2.80;;
49450;SDS011;35336;48.400;10.886;2023-08-31T00:26:03;3.20;;;2.90;;
49450;SDS011;35336;48.400;10.886;2023-08-31T00:26:18;4.70;;;3.17;;
49450;SDS011;35336;48.400;10.886;2023-08-31T00:26:35;5.70;;;2.83;;
49450;SDS011;35336;48.400;10.886;2023-08-31T00:26:54;4.18;;;2.50;;
49450;SDS011;35336;48.400;10.886;2023-08-31T00:27:09;3.30;;;2.78;;
49450;SDS011;35336;48.400;10.886;2023-08-31T00:27:24;2.97;;;2.77;;
49450;SDS011;35336;48.400;10.886;2023-08-31T00:27:40;3.10;;;2.80;;
49450;SDS011;35336;48.400;10.886;2023-08-31T00:27:55;3.40;;;2.70;;
49450;SDS011;35336;48.400;10.886;2023-08-31T00:28:11;3.00;;;2.70;;
49450;SDS011;35336;48.400;10.886;2023-08-31T00:28:28;3.20;;;2.90;;
49450;SDS011;35336;48.400;10.886;2023-08-31T00:28:44;3.35;;;3.05;;
49450;SDS011;35336;48.400;10.886;2023-08-31T00:29:01;3.60;;;2.80;;
49450;SDS011;35336;48.400;10.886;2023-08-31T00:29:17;3.47;;;2.60;;
49450;SDS011;35336;48.400;10.886;2023-08-31T00:29:32;2.92;;;2.72;;
49450;SDS011;35336;48.400;10.886;2023-08-31T00:29:47;3.40;;;3.10;;
49450;SDS011;35336;48.400;10.886;2023-08-31T00:30:04;4.27;;;2.90;;
49450;SDS011;35336;48.400;10.886;2023-08-31T00:30:20;4.53;;;2.60;;
49450;SDS011;35336;48.400;10.886;2023-08-31T00:30:38;4.80;;;2.70;;
49450;SDS011;35336;48.400;10.886;2023-08-31T00:30:53;4.90;;;2.83;;
49450;SDS011;35336;48.400;10.886;2023-08-31T00:31:08;3.75;;;2.78;;
49450;SDS011;35336;48.400;10.886;2023-08-31T00:31:26;3.10;;;2.80;;
49450;SDS011;35336;48.400;10.886;2023-08-31T00:31:41;3.30;;;2.90;;
49450;SDS011;35336;48.400;10.886;2023-08-31T00:31:57;3.13;;;2.83;;
49450;SDS011;35336;48.400;10.886;2023-08-31T00:32:12;2.90;;;2.70;;
49450;SDS011;35336;48.400;10.886;2023-08-31T00:32:27;3.10;;;2.80;;
49450;SDS011;35336;48.400;10.886;2023-08-31T00:32:45;3.10;;;2.80;;
49450;SDS011;35336;48.400;10.886;2023-08-31T00:33:00;3.00;;;2.73;;
49450;SDS011;35336;48.400;10.886;2023-08-31T00:33:16;2.92;;;2.63;;
49450;SDS011;35336;48.400;10.886;2023-08-31T00:33:31;3.00;;;2.60;;
49450;SDS011;35336;48.400;10.886;2023-08-31T00:33:49;3.83;;;2.53;;
49450;SDS011;35336;48.400;10.886;2023-08-31T00:34:05;4.83;;;2.60;;
49450;SDS011;35336;48.400;10.886;2023-08-31T00:34:24;3.30;;;2.70;;
49450;SDS011;35336;48.400;10.886;2023-08-31T00:34:40;2.88;;;2.67;;
49450;SDS011;35336;48.400;10.886;2023-08-31T00:34:55;2.60;;;2.40;;
49450;SDS011;35336;48.400;10.886;2023-08-31T00:35:10;2.93;;;2.57;;
49450;SDS011;35336;48.400;10.886;2023-08-31T00:35:26;3.17;;;2.73;;
49450;SDS011;35336;48.400;10.886;2023-08-31T00:35:44;2.80;;;2.60;;
49450;SDS011;35336;48.400;10.886;2023-08-31T00:35:59;2.70;;;2.40;;
49450;SDS011;35336;48.400;10.886;2023-08-31T00:36:15;2.97;;;2.70;;
49450;SDS011;35336;48.400;10.886;2023-08-31T00:36:31;3.23;;;2.93;;
49450;SDS011;35336;48.400;10.886;2023-08-31T00:36:48;3.83;;;2.80;;
49450;SDS011;35336;48.400;10.886;2023-08-31T00:37:04;4.20;;;2.80;;
49450;SDS011;35336;48.400;10.886;2023-08-31T00:37:21;3.17;;;2.87;;
49450;SDS011;35336;48.400;10.886;2023-08-31T00:37:36;3.35;;;2.78;;
49450;SDS011;35336;48.400;10.886;2023-08-31T00:37:52;5.07;;;2.93;;
49450;SDS011;35336;48.400;10.886;2023-08-31T00:38:10;6.10;;;3.00;;
49450;SDS011;35336;48.400;10.886;2023-08-31T00:38:27;5.00;;;3.08;;
49450;SDS011;35336;48.400;10.886;2023-08-31T00:38:42;3.43;;;2.93;;
49450;SDS011;35336;48.400;10.886;2023-08-31T00:38:58;3.85;;;2.95;;
49450;SDS011;35336;48.400;10.886;2023-08-31T00:39:13;3.83;;;3.00;;
49450;SDS011;35336;48.400;10.886;2023-08-31T00:39:31;3.30;;;3.00;;
49450;SDS011;35336;48.400;10.886;2023-08-31T00:39:46;3.17;;;2.88;;
49450;SDS011;35336;48.400;10.886;2023-08-31T00:40:02;3.70;;;3.20;;
49450;SDS011;35336;48.400;10.886;2023-08-31T00:40:17;4.45;;;3.17;;
49450;SDS011;35336;48.400;10.886;2023-08-31T00:40:32;3.70;;;3.00;;
49450;SDS011;35336;48.400;10.886;2023-08-31T00:40:53;3.63;;;3.08;;
49450;SDS011;35336;48.400;10.886;2023-08-31T00:41:08;4.07;;;3.10;;
49450;SDS011;35336;48.400;10.886;2023-08-31T00:41:23;3.70;;;3.20;;
49450;SDS011;35336;48.400;10.886;2023-08-31T00:41:43;3.38;;;3.08;;
49450;SDS011;35336;48.400;10.886;2023-08-31T00:41:59;3.40;;;3.10;;
49450;SDS011;35336;48.400;10.886;2023-08-31T00:42:15;3.20;;;2.90;;
49450;SDS011;35336;48.400;10.886;2023-08-31T00:42:32;4.97;;;3.15;;
49450;SDS011;35336;48.400;10.886;2023-08-31T00:42:48;5.27;;;3.30;;
49450;SDS011;35336;48.400;10.886;2023-08-31T00:43:03;3.63;;;3.00;;
49450;SDS011;35336;48.400;10.886;2023-08-31T00:43:18;4.70;;;2.80;;
49450;SDS011;35336;48.400;10.886;2023-08-31T00:43:37;6.75;;;2.80;;
49450;SDS011;35336;48.400;10.886;2023-08-31T00:43:54;5.35;;;3.00;;
49450;SDS011;35336;48.400;10.886;2023-08-31T00:44:10;3.42;;;2.80;;
49450;SDS011;35336;48.400;10.886;2023-08-31T00:44:25;3.43;;;2.60;;
49450;SDS011;35336;48.400;10.886;2023-08-31T00:44:40;3.00;;;2.80;;
49450;SDS011;35336;48.400;10.886;2023-08-31T00:44:55;4.00;;;3.10;;
49450;SDS011;35336;48.400;10.886;2023-08-31T00:45:11;5.55;;;2.83;;
49450;SDS011;35336;48.400;10.886;2023-08-31T00:45:28;5.93;;;2.90;;
49450;SDS011;35336;48.400;10.886;2023-08-31T00:45:47;4.95;;;3.13;;
49450;SDS011;35336;48.400;10.886;2023-08-31T00:46:07;3.38;;;2.75;;
49450;SDS011;35336;48.400;10.886;2023-08-31T00:46:25;4.10;;;2.80;;
49450;SDS011;35336;48.400;10.886;2023-08-31T00:46:40;3.80;;;2.80;;
49450;SDS011;35336;48.400;10.886;2023-08-31T00:46:56;3.80;;;2.60;;
49450;SDS011;35336;48.400;10.886;2023-08-31T00:47:12;4.38;;;2.67;;
49450;SDS011;35336;48.400;10.886;2023-08-31T00:47:30;4.63;;;2.92;;
49450;SDS011;35336;48.400;10.886;2023-08-31T00:47:48;4.00;;;2.80;;
49450;SDS011;35336;48.400;10.886;2023-08-31T00:48:04;4.40;;;2.80;;
49450;SDS011;35336;48.400;10.886;2023-08-31T00:48:20;3.60;;;2.78;;
49450;SDS011;35336;48.400;10.886;2023-08-31T00:48:35;3.60;;;2.93;;
49450;SDS011;35336;48.400;10.886;2023-08-31T00:48:51;3.90;;;3.10;;
49450;SDS011;35336;48.400;10.886;2023-08-31T00:49:09;3.53;;;3.00;;
49450;SDS011;35336;48.400;10.886;2023-08-31T00:49:24;4.30;;;3.20;;
49450;SDS011;35336;48.400;10.886;2023-08-31T00:49:40;3.77;;;3.27;;
49450;SDS011;35336;48.400;10.886;2023-08-31T00:49:55;3.30;;;3.00;;
49450;SDS011;35336;48.400;10.886;2023-08-31T00:50:11;3.30;;;3.00;;
49450;SDS011;35336;48.400;10.886;2023-08-31T00:50:26;3.40;;;3.10;;
49450;SDS011;35336;48.400;10.886;2023-08-31T00:50:43;3.30;;;3.00;;
49450;SDS011;35336;48.400;10.886;2023-08-31T00:51:02;3.35;;;3.05;;
49450;SDS011;35336;48.400;10.886;2023-08-31T00:51:21;3.53;;;3.23;;
49450;SDS011;35336;48.400;10.886;2023-08-31T00:51:36;3.70;;;3.27;;
49450;SDS011;35336;48.400;10.886;2023-08-31T00:51:52;3.30;;;3.00;;
49450;SDS011;35336;48.400;10.886;2023-08-31T00:52:07;3.23;;;2.97;;
49450;SDS011;35336;48.400;10.886;2023-08-31T00:52:25;3.90;;;3.00;;
49450;SDS011;35336;48.400;10.886;2023-08-31T00:52:42;5.90;;;3.15;;
49450;SDS011;35336;48.400;10.886;2023-08-31T00:52:58;5.13;;;3.30;;
49450;SDS011;35336;48.400;10.886;2023-08-31T00:53:13;4.53;;;3.10;;
49450;SDS011;35336;48.400;10.886;2023-08-31T00:53:29;4.13;;;3.00;;
49450;SDS011;35336;48.400;10.886;2023-08-31T00:53:45;5.32;;;3.20;;
49450;SDS011;35336;48.400;10.886;2023-08-31T00:54:02;5.38;;;3.17;;
49450;SDS011;35336;48.400;10.886;2023-08-31T00:54:18;4.40;;;3.28;;
49450;SDS011;35336;48.400;10.886;2023-08-31T00:54:36;5.77;;;3.30;;
49450;SDS011;35336;48.400;10.886;2023-08-31T00:54:51;5.15;;;3.20;;
49450;SDS011;35336;48.400;10.886;2023-08-31T00:55:08;4.15;;;3.28;;
49450;SDS011;35336;48.400;10.886;2023-08-31T00:55:24;3.40;;;3.10;;
49450;SDS011;35336;48.400;10.886;2023-08-31T00:55:39;3.30;;;3.00;;
49450;SDS011;35336;48.400;10.886;2023-08-31T00:56:03;5.40;;;3.25;;
49450;SDS011;35336;48.400;10.886;2023-08-31T00:56:19;6.03;;;3.40;;
49450;SDS011;35336;48.400;10.886;2023-08-31T00:56:34;5.07;;;3.20;;
49450;SDS011;35336;48.400;10.886;2023-08-31T00:56:53;3.40;;;3.10;;
49450;SDS011;35336;48.400;10.886;2023-08-31T00:57:08;3.30;;;3.00;;
49450;SDS011;35336;48.400;10.886;2023-08-31T00:57:24;3.40;;;3.10;;
49450;SDS011;35336;48.400;10.886;2023-08-31T00:57:39;3.70;;;3.40;;
49450;SDS011;35336;48.400;10.886;2023-08-31T00:57:54;3.97;;;3.37;;
49450;SDS011;35336;48.400;10.886;2023-08-31T00:58:10;3.78;;;3.30;;
49450;SDS011;35336;48.400;10.886;2023-08-31T00:58:26;6.70;;;3.33;;
49450;SDS011;35336;48.400;10.886;2023-08-31T00:58:41;6.60;;;3.30;;
49450;SDS011;35336;48.400;10.886;2023-08-31T00:58:56;3.60;;;3.23;;
49450;SDS011;35336;48.400;10.886;2023-08-31T00:59:12;3.92;;;3.35;;
49450;SDS011;35336;48.400;10.886;2023-08-31T00:59:27;3.50;;;3.20;;
49450;SDS011;35336;48.400;10.886;2023-08-31T00:59:42;3.57;;;3.27;;
49450;SDS011;35336;48.400;10.886;2023-08-31T00:59:58;3.70;;;3.40;;
49450;SDS011;35336;48.400;10.886;2023-08-31T01:00:15;3.40;;;3.10;;
49450;SDS011;35336;48.400;10.886;2023-08-31T01:00:56;3.57;;;3.27;;
49450;SDS011;35336;48.400;10.886;2023-08-31T01:01:39;3.95;;;3.55;;
49450;SDS011;35336;48.400;10.886;2023-08-31T01:02:03;4.72;;;3.47;;
49450;SDS011;35336;48.400;10.886;2023-08-31T01:03:09;5.53;;;3.40;;
49450;SDS011;35336;48.400;10.886;2023-08-31T01:05:29;3.53;;;3.22;;
49450;SDS011;35336;48.400;10.886;2023-08-31T01:05:52;4.03;;;3.63;;
49450;SDS011;35336;48.400;10.886;2023-08-31T01:06:53;4.32;;;3.50;;
49450;SDS011;35336;48.400;10.886;2023-08-31T01:07:24;4.63;;;3.53;;
49450;SDS011;35336;48.400;10.886;2023-08-31T01:08:14;5.00;;;3.60;;
49450;SDS011;35336;48.400;10.886;2023-08-31T01:09:01;3.88;;;3.35;;
49450;SDS011;35336;48.400;10.886;2023-08-31T01:09:31;4.53;;;3.33;;
49450;SDS011;35336;48.400;10.886;2023-08-31T01:11:12;4.85;;;3.15;;
49450;SDS011;35336;48.400;10.886;2023-08-31T01:11:47;5.90;;;3.65;;
49450;SDS011;35336;48.400;10.886;2023-08-31T01:12:34;4.13;;;3.20;;
49450;SDS011;35336;48.400;10.886;2023-08-31T01:13:38;4.20;;;3.20;;
49450;SDS011;35336;48.400;10.886;2023-08-31T01:14:07;3.88;;;3.10;;
49450;SDS011;35336;48.400;10.886;2023-08-31T01:14:27;3.80;;;3.20;;
49450;SDS011;35336;48.400;10.886;2023-08-31T01:14:50;3.67;;;3.28;;
49450;SDS011;35336;48.400;10.886;2023-08-31T01:15:13;3.55;;;3.25;;
49450;SDS011;35336;48.400;10.886;2023-08-31T01:15:30;3.72;;;3.40;;
49450;SDS011;35336;48.400;10.886;2023-08-31T01:15:47;3.70;;;3.40;;
49450;SDS011;35336;48.400;10.886;2023-08-31T01:16:07;3.80;;;3.50;;
49450;SDS011;35336;48.400;10.886;2023-08-31T01:16:26;4.85;;;3.42;;
49450;SDS011;35336;48.400;10.886;2023-08-31T01:16:44;4.78;;;3.30;;
49450;SDS011;35336;48.400;10.886;2023-08-31T01:17:04;3.83;;;3.13;;
49450;SDS011;35336;48.400;10.886;2023-08-31T01:17:22;3.67;;;3.28;;
49450;SDS011;35336;48.400;10.886;2023-08-31T01:17:43;3.88;;;3.47;;
49450;SDS011;35336;48.400;10.886;2023-08-31T01:18:03;3.40;;;3.10;;
49450;SDS011;35336;48.400;10.886;2023-08-31T01:18:26;3.85;;;3.25;;
49450;SDS011;35336;48.400;10.886;2023-08-31T01:18:43;3.45;;;3.15;;
49450;SDS011;35336;48.400;10.886;2023-08-31T01:19:00;3.40;;;3.10;;
49450;SDS011;35336;48.400;10.886;2023-08-31T01:20:04;4.20;;;3.40;;
49450;SDS011;35336;48.400;10.886;2023-08-31T01:20:58;3.75;;;3.40;;
49450;SDS011;35336;48.400;10.886;2023-08-31T01:21:50;4.90;;;3.42;;
49450;SDS011;35336;48.400;10.886;2023-08-31T01:22:11;4.88;;;3.40;;
49450;SDS011;35336;48.400;10.886;2023-08-31T01:23:13;4.72;;;3.20;;
49450;SDS011;35336;48.400;10.886;2023-08-31T01:23:51;5.68;;;3.03;;
49450;SDS011;35336;48.400;10.886;2023-08-31T01:24:10;4.88;;;3.40;;
49450;SDS011;35336;48.400;10.886;2023-08-31T01:24:27;4.55;;;3.35;;
49450;SDS011;35336;48.400;10.886;2023-08-31T01:24:45;3.42;;;3.13;;
49450;SDS011;35336;48.400;10.886;2023-08-31T01:25:00;3.80;;;3.20;;
49450;SDS011;35336;48.400;10.886;2023-08-31T01:25:16;3.92;;;3.30;;
49450;SDS011;35336;48.400;10.886;2023-08-31T01:25:32;4.03;;;3.30;;
49450;SDS011;35336;48.400;10.886;2023-08-31T01:25:48;4.80;;;3.30;;
49450;SDS011;35336;48.400;10.886;2023-08-31T01:26:06;3.95;;;3.28;;
49450;SDS011;35336;48.400;10.886;2023-08-31T01:26:24;3.55;;;3.25;;
49450;SDS011;35336;48.400;10.886;2023-08-31T01:26:42;3.45;;;3.15;;
49450;SDS011;35336;48.400;10.886;2023-08-31T01:26:58;3.47;;;3.13;;
49450;SDS011;35336;48.400;10.886;2023-08-31T01:27:13;4.00;;;3.60;;
49450;SDS011;35336;48.400;10.886;2023-08-31T01:27:32;3.92;;;3.60;;
49450;SDS011;35336;48.400;10.886;2023-08-31T01:27:48;3.65;;;3.35;;
49450;SDS011;35336;48.400;10.886;2023-08-31T01:28:03;3.90;;;3.42;;
49450;SDS011;35336;48.400;10.886;2023-08-31T01:28:22;3.78;;;3.30;;
49450;SDS011;35336;48.400;10.886;2023-08-31T01:28:38;3.40;;;3.10;;
49450;SDS011;35336;48.400;10.886;2023-08-31T01:28:54;3.70;;;3.30;;
49450;SDS011;35336;48.400;10.886;2023-08-31T01:29:10;3.55;;;3.25;;
49450;SDS011;35336;48.400;10.886;2023-08-31T01:29:29;3.30;;;3.00;;
49450;SDS011;35336;48.400;10.886;2023-08-31T01:29:44;3.38;;;3.05;;
49450;SDS011;35336;48.400;10.886;2023-08-31T01:30:00;3.33;;;3.03;;
49450;SDS011;35336;48.400;10.886;2023-08-31T01:30:15;3.07;;;2.80;;
49450;SDS011;35336;48.400;10.886;2023-08-31T01:30:35;3.90;;;3.10;;
49450;SDS011;35336;48.400;10.886;2023-08-31T01:30:53;3.90;;;3.30;;
49450;SDS011;35336;48.400;10.886;2023-08-31T01:31:08;3.73;;;3.17;;
49450;SDS011;35336;48.400;10.886;2023-08-31T01:31:23;3.67;;;3.30;;
49450;SDS011;35336;48.400;10.886;2023-08-31T01:31:42;3.50;;;3.20;;
49450;SDS011;35336;48.400;10.886;2023-08-31T01:32:00;3.67;;;3.25;;
49450;SDS011;35336;48.400;10.886;2023-08-31T01:32:19;3.55;;;3.13;;
49450;SDS011;35336;48.400;10.886;2023-08-31T01:32:36;3.60;;;3.20;;
49450;SDS011;35336;48.400;10.886;2023-08-31T01:32:57;3.25;;;2.95;;
49450;SDS011;35336;48.400;10.886;2023-08-31T01:33:18;3.33;;;3.00;;
49450;SDS011;35336;48.400;10.886;2023-08-31T01:33:33;3.33;;;3.03;;
49450;SDS011;35336;48.400;10.886;2023-08-31T01:33:48;3.30;;;3.00;;
49450;SDS011;35336;48.400;10.886;2023-08-31T01:34:03;3.40;;;3.10;;
49450;SDS011;35336;48.400;10.886;2023-08-31T01:34:19;3.30;;;3.00;;
49450;SDS011;35336;48.400;10.886;2023-08-31T01:34:34;3.33;;;3.03;;
49450;SDS011;35336;48.400;10.886;2023-08-31T01:34:54;3.42;;;3.00;;
49450;SDS011;35336;48.400;10.886;2023-08-31T01:35:10;4.15;;;3.00;;
49450;SDS011;35336;48.400;10.886;2023-08-31T01:35:35;3.20;;;2.90;;
49450;SDS011;35336;48.400;10.886;2023-08-31T01:35:57;3.38;;;3.05;;
49450;SDS011;35336;48.400;10.886;2023-08-31T01:36:26;3.28;;;2.97;;
49450;SDS011;35336;48.400;10.886;2023-08-31T01:36:46;3.20;;;2.90;;
49450;SDS011;35336;48.400;10.886;2023-08-31T01:37:15;3.15;;;2.85;;
49450;SDS011;35336;48.400;10.886;2023-08-31T01:38:12;3.38;;;3.08;;
49450;SDS011;35336;48.400;10.886;2023-08-31T01:38:34;3.50;;;3.20;;
49450;SDS011;35336;48.400;10.886;2023-08-31T01:40:08;4.45;;;3.13;;
49450;SDS011;35336;48.400;10.886;2023-08-31T01:40:43;3.17;;;2.90;;
49450;SDS011;35336;48.400;10.886;2023-08-31T01:41:07;4.35;;;3.15;;
49450;SDS011;35336;48.400;10.886;2023-08-31T01:41:28;3.72;;;3.20;;
49450;SDS011;35336;48.400;10.886;2023-08-31T01:41:46;3.47;;;3.10;;
49450;SDS011;35336;48.400;10.886;2023-08-31T01:42:06;3.42;;;2.92;;
49450;SDS011;35336;48.400;10.886;2023-08-31T01:42:22;3.33;;;3.03;;
49450;SDS011;35336;48.400;10.886;2023-08-31T01:42:42;3.15;;;2.85;;
49450;SDS011;35336;48.400;10.886;2023-08-31T01:42:58;3.42;;;2.90;;
49450;SDS011;35336;48.400;10.886;2023-08-31T01:43:15;3.75;;;3.00;;
49450;SDS011;35336;48.400;10.886;2023-08-31T01:43:36;3.15;;;2.75;;
49450;SDS011;35336;48.400;10.886;2023-08-31T01:43:54;3.30;;;3.00;;
49450;SDS011;35336;48.400;10.886;2023-08-31T01:44:09;3.50;;;3.00;;
49450;SDS011;35336;48.400;10.886;2023-08-31T01:44:31;4.03;;;2.90;;
49450;SDS011;35336;48.400;10.886;2023-08-31T01:44:48;3.80;;;2.90;;
49450;SDS011;35336;48.400;10.886;2023-08-31T01:45:08;3.65;;;2.97;;
49450;SDS011;35336;48.400;10.886;2023-08-31T01:45:29;3.10;;;2.90;;
49450;SDS011;35336;48.400;10.886;2023-08-31T01:45:45;3.30;;;3.00;;
49450;SDS011;35336;48.400;10.886;2023-08-31T01:46:04;4.03;;;2.97;;
49450;SDS011;35336;48.400;10.886;2023-08-31T01:46:19;4.43;;;2.70;;
49450;SDS011;35336;48.400;10.886;2023-08-31T01:46:35;3.45;;;2.60;;
49450;SDS011;35336;48.400;10.886;2023-08-31T01:46:52;2.77;;;2.47;;
49450;SDS011;35336;48.400;10.886;2023-08-31T01:47:08;3.35;;;2.47;;
49450;SDS011;35336;48.400;10.886;2023-08-31T01:47:27;3.55;;;2.75;;
49450;SDS011;35336;48.400;10.886;2023-08-31T01:47:42;3.30;;;2.83;;
49450;SDS011;35336;48.400;10.886;2023-08-31T01:48:03;3.80;;;2.85;;
49450;SDS011;35336;48.400;10.886;2023-08-31T01:48:19;4.22;;;2.90;;
49450;SDS011;35336;48.400;10.886;2023-08-31T01:48:40;3.53;;;3.00;;
49450;SDS011;35336;48.400;10.886;2023-08-31T01:48:56;3.00;;;2.60;;
49450;SDS011;35336;48.400;10.886;2023-08-31T01:49:11;3.47;;;2.77;;
49450;SDS011;35336;48.400;10.886;2023-08-31T01:49:26;3.60;;;3.10;;
49450;SDS011;35336;48.400;10.886;2023-08-31T01:49:42;3.43;;;2.80;;
49450;SDS011;35336;48.400;10.886;2023-08-31T01:49:57;3.03;;;2.67;;
49450;SDS011;35336;48.400;10.886;2023-08-31T01:50:14;3.20;;;2.90;;
49450;SDS011;35336;48.400;10.886;2023-08-31T01:50:30;3.35;;;3.00;;
49450;SDS011;35336;48.400;10.886;2023-08-31T01:50:47;3.38;;;2.75;;
49450;SDS011;35336;48.400;10.886;2023-08-31T01:51:02;3.07;;;2.70;;
49450;SDS011;35336;48.400;10.886;2023-08-31T01:51:20;3.10;;;2.80;;
49450;SDS011;35336;48.400;10.886;2023-08-31T01:51:35;2.97;;;2.70;;
49450;SDS011;35336;48.400;10.886;2023-08-31T01:51:50;3.10;;;2.60;;
49450;SDS011;35336;48.400;10.886;2023-08-31T01:52:08;2.83;;;2.50;;
49450;SDS011;35336;48.400;10.886;2023-08-31T01:52:25;2.67;;;2.47;;
49450;SDS011;35336;48.400;10.886;2023-08-31T01:52:46;2.78;;;2.50;;
49450;SDS011;35336;48.400;10.886;2023-08-31T01:53:01;2.80;;;2.45;;
49450;SDS011;35336;48.400;10.886;2023-08-31T01:53:19;2.72;;;2.50;;
49450;SDS011;35336;48.400;10.886;2023-08-31T01:53:36;3.15;;;2.72;;
49450;SDS011;35336;48.400;10.886;2023-08-31T01:53:52;3.07;;;2.63;;
49450;SDS011;35336;48.400;10.886;2023-08-31T01:54:07;2.87;;;2.57;;
49450;SDS011;35336;48.400;10.886;2023-08-31T01:54:25;2.97;;;2.67;;
49450;SDS011;35336;48.400;10.886;2023-08-31T01:54:42;2.95;;;2.67;;
49450;SDS011;35336;48.400;10.886;2023-08-31T01:54:58;2.77;;;2.57;;